createdAt,value
2023-03-27T00:04:57.257Z,9.12
2023-03-27T00:10:01.894Z,9.10
2023-03-27T00:15:08.999Z,9.18
2023-03-27T00:20:15.952Z,9.07
2023-03-27T00:25:22.977Z,8.88
2023-03-27T00:30:29.701Z,8.96
2023-03-27T00:35:33.849Z,8.81
2023-03-27T00:40:39.300Z,8.86
2023-03-27T00:45:47.248Z,9.01
2023-03-27T00:50:51.772Z,9.07
2023-03-27T00:55:58.858Z,9.15
2023-03-27T01:01:04.783Z,9.18
2023-03-27T01:06:11.188Z,9.07
2023-03-27T01:11:28.759Z,8.95
2023-03-27T01:16:42.156Z,8.98
2023-03-27T01:22:25.183Z,9.06
2023-03-27T01:27:47.386Z,9.39
2023-03-27T01:33:30.980Z,9.19
2023-03-27T01:39:01.309Z,9.19
2023-03-27T01:44:17.278Z,8.94
2023-03-27T01:49:26.403Z,9.00
2023-03-27T01:54:34.003Z,9.15
2023-03-27T01:59:44.764Z,9.16
2023-03-27T02:04:55.908Z,9.31
2023-03-27T02:10:05.015Z,9.45
2023-03-27T02:15:23.515Z,9.45
2023-03-27T02:20:30.124Z,9.32
2023-03-27T02:25:36.983Z,9.60
2023-03-27T02:31:06.930Z,9.54
2023-03-27T02:36:24.167Z,9.41
2023-03-27T02:41:37.385Z,9.29
2023-03-27T02:47:13.017Z,9.41
2023-03-27T02:52:21.927Z,9.43
2023-03-27T02:57:31.848Z,9.56
2023-03-27T03:03:02.356Z,9.59
2023-03-27T03:08:10.538Z,9.67
2023-03-27T03:13:15.050Z,9.80
2023-03-27T03:18:21.858Z,9.80
2023-03-27T03:23:26.484Z,9.79
2023-03-27T03:28:32.058Z,9.88
2023-03-27T03:33:38.572Z,9.93
2023-03-27T03:38:43.042Z,10.02
2023-03-27T03:43:52.104Z,9.91
2023-03-27T03:48:59.290Z,10.05
2023-03-27T03:54:05.495Z,9.99
2023-03-27T03:59:10.393Z,9.97
2023-03-27T04:04:19.913Z,10.18
2023-03-27T04:09:40.340Z,10.19
2023-03-27T04:14:47.286Z,10.12
2023-03-27T04:20:13.447Z,10.09
2023-03-27T04:25:19.441Z,10.04
2023-03-27T04:30:29.152Z,10.02
2023-03-27T04:35:45.019Z,9.93
2023-03-27T04:40:54.489Z,10.09
2023-03-27T04:46:00.995Z,10.14
2023-03-27T04:51:09.631Z,10.05
2023-03-27T04:56:16.586Z,10.03
2023-03-27T05:01:20.810Z,9.96
2023-03-27T05:06:44.741Z,10.01
2023-03-27T05:11:54.217Z,10.03
2023-03-27T05:17:00.952Z,9.98
2023-03-27T05:22:07.908Z,9.99
2023-03-27T05:27:15.446Z,10.16
2023-03-27T05:32:23.566Z,10.22
2023-03-27T05:37:38.611Z,10.15
2023-03-27T05:43:01.729Z,10.37
2023-03-27T05:48:08.541Z,10.33
2023-03-27T05:53:19.037Z,10.26
2023-03-27T05:58:44.331Z,10.21
2023-03-27T06:03:49.485Z,10.35
2023-03-27T06:09:00.398Z,10.62
2023-03-27T06:14:05.826Z,10.74
2023-03-27T06:19:26.575Z,11.07
2023-03-27T06:24:33.276Z,11.44
2023-03-27T06:29:41.235Z,11.67
2023-03-27T06:34:45.728Z,11.81
2023-03-27T06:40:20.220Z,12.22
2023-03-27T06:45:28.439Z,12.70
2023-03-27T06:50:52.008Z,13.12
2023-03-27T06:55:59.500Z,13.30
2023-03-27T07:01:16.731Z,13.80
2023-03-27T07:06:35.903Z,14.54
2023-03-27T07:11:47.624Z,14.50
2023-03-27T07:16:52.024Z,14.49
2023-03-27T07:21:57.410Z,14.74
2023-03-27T07:27:03.926Z,14.97
2023-03-27T07:32:11.140Z,15.14
2023-03-27T07:37:27.262Z,15.29
2023-03-27T07:42:59.335Z,15.99
2023-03-27T07:48:08.595Z,15.59
2023-03-27T07:53:32.902Z,16.92
2023-03-27T07:58:44.754Z,17.23
2023-03-27T08:03:54.986Z,18.24
2023-03-27T08:09:02.236Z,17.84
2023-03-27T08:14:10.132Z,18.58
2023-03-27T08:19:16.334Z,20.00
2023-03-27T08:24:25.401Z,20.93
2023-03-27T08:29:47.943Z,21.14
2023-03-27T08:34:52.292Z,20.33
2023-03-27T08:40:02.362Z,18.76
2023-03-27T08:45:18.809Z,18.82
2023-03-27T08:50:35.086Z,18.70
2023-03-27T08:55:51.571Z,17.90
2023-03-27T09:01:14.829Z,17.30
2023-03-27T09:06:28.011Z,17.11
2023-03-27T09:11:51.071Z,16.98
2023-03-27T09:17:14.279Z,16.71
2023-03-27T09:22:25.223Z,16.97
2023-03-27T09:27:50.784Z,16.74
2023-03-27T09:33:08.405Z,16.49
2023-03-27T09:38:27.629Z,16.45
2023-03-27T09:43:43.038Z,16.47
2023-03-27T09:48:55.746Z,16.02
2023-03-27T09:54:01.219Z,15.48
2023-03-27T09:59:32.524Z,14.83
2023-03-27T10:05:00.542Z,14.98
2023-03-27T10:10:12.889Z,15.13
2023-03-27T10:15:43.388Z,15.46
2023-03-27T10:21:01.851Z,15.52
2023-03-27T10:26:12.361Z,15.82
2023-03-27T10:31:32.061Z,15.42
2023-03-27T10:36:48.626Z,15.35
2023-03-27T10:41:57.594Z,15.39
2023-03-27T10:47:02.376Z,15.38
2023-03-27T10:52:18.204Z,15.60
2023-03-27T10:57:42.081Z,15.78
2023-03-27T11:02:52.834Z,15.21
2023-03-27T11:08:08.541Z,15.18
2023-03-27T11:13:19.136Z,15.21
2023-03-27T11:18:29.745Z,15.25
2023-03-27T11:23:44.657Z,15.30
2023-03-27T11:29:04.227Z,15.34
2023-03-27T11:34:29.051Z,15.73
2023-03-27T11:39:45.703Z,16.27
2023-03-27T11:44:53.172Z,16.60
2023-03-27T11:50:23.409Z,16.65
2023-03-27T11:55:36.442Z,16.36
2023-03-27T12:00:49.206Z,16.10
2023-03-27T12:06:15.733Z,15.76
2023-03-27T12:11:25.790Z,15.66
2023-03-27T12:16:59.318Z,15.09
2023-03-27T12:22:30.088Z,15.06
2023-03-27T12:27:59.708Z,14.74
2023-03-27T12:33:46.678Z,14.22
2023-03-27T12:38:54.378Z,13.48
2023-03-27T12:44:03.667Z,12.34
2023-03-27T12:49:47.645Z,11.65
2023-03-27T12:55:37.645Z,11.48
2023-03-27T13:01:01.123Z,11.29
2023-03-27T13:06:33.302Z,11.11
2023-03-27T13:17:46.972Z,9.73
2023-03-27T13:23:06.883Z,8.44
2023-03-27T13:34:17.446Z,7.51
2023-03-27T13:39:25.026Z,7.02
2023-03-27T13:45:00.134Z,7.04
2023-03-27T13:50:35.216Z,7.30
2023-03-27T13:55:58.082Z,7.19
2023-03-27T14:01:40.691Z,7.27
2023-03-27T14:06:59.982Z,8.00
2023-03-27T14:12:16.606Z,8.17
2023-03-27T14:17:48.156Z,8.54
2023-03-27T14:22:59.565Z,8.88
2023-03-27T14:28:29.833Z,8.86
2023-03-27T14:33:35.914Z,9.17
2023-03-27T14:38:40.070Z,9.47
2023-03-27T14:43:49.738Z,9.52
2023-03-27T14:48:58.197Z,9.34
2023-03-27T14:54:08.181Z,9.19
2023-03-27T14:59:29.708Z,9.01
2023-03-27T15:04:43.193Z,9.15
2023-03-27T15:10:03.593Z,8.74
2023-03-27T15:15:38.555Z,8.86
2023-03-27T15:20:44.766Z,9.19
2023-03-27T15:25:54.148Z,9.41
2023-03-27T15:31:00.876Z,9.04
2023-03-27T15:36:11.568Z,8.78
2023-03-27T15:41:39.209Z,8.66
2023-03-27T15:46:51.563Z,9.16
2023-03-27T15:51:56.130Z,9.23
2023-03-27T16:02:31.632Z,9.66
2023-03-27T16:07:48.316Z,9.34
2023-03-27T16:12:56.549Z,8.88
2023-03-27T16:18:04.397Z,8.78
2023-03-27T16:23:08.950Z,8.65
2023-03-27T16:28:17.718Z,8.67
2023-03-27T16:33:25.568Z,8.78
2023-03-27T16:38:31.763Z,9.11
2023-03-27T16:43:37.097Z,9.17
2023-03-27T16:48:42.716Z,9.08
2023-03-27T16:53:47.256Z,8.78
2023-03-27T16:58:51.867Z,8.63
2023-03-27T17:04:02.236Z,8.81
2023-03-27T17:09:06.483Z,8.80
2023-03-27T17:14:10.949Z,8.61
2023-03-27T17:19:17.226Z,8.34
2023-03-27T17:24:22.520Z,8.61
2023-03-27T17:29:26.734Z,8.60
2023-03-27T17:34:32.246Z,8.17
2023-03-27T17:39:36.306Z,7.98
2023-03-27T17:44:41.658Z,8.01
2023-03-27T17:49:47.171Z,8.15
2023-03-27T17:54:51.427Z,7.83
2023-03-27T17:59:57.155Z,7.58
2023-03-27T18:05:05.563Z,7.56
2023-03-27T18:10:14.437Z,7.50
2023-03-27T18:15:18.816Z,7.90
2023-03-27T18:20:25.057Z,7.69
2023-03-27T18:25:30.500Z,7.88
2023-03-27T18:30:34.912Z,7.45
2023-03-27T18:35:42.877Z,7.28
2023-03-27T18:40:49.136Z,7.21
2023-03-27T18:45:57.621Z,6.90
2023-03-27T18:51:06.277Z,7.23
2023-03-27T18:56:10.532Z,7.29
2023-03-27T19:01:16.083Z,7.78
2023-03-27T19:06:21.677Z,7.85
2023-03-27T19:11:26.091Z,8.01
2023-03-27T19:16:53.410Z,7.68
2023-03-27T19:22:20.487Z,8.00
2023-03-27T19:27:38.477Z,8.13
2023-03-27T19:32:43.719Z,8.08
2023-03-27T19:37:53.605Z,8.39
2023-03-27T19:43:01.405Z,7.89
2023-03-27T19:48:06.055Z,7.96
2023-03-27T19:53:11.677Z,8.39
2023-03-27T19:58:15.858Z,8.57
2023-03-27T20:03:20.967Z,8.61
2023-03-27T20:08:31.423Z,8.73
2023-03-27T20:13:49.073Z,8.69
2023-03-27T20:19:04.598Z,8.50
2023-03-27T20:24:11.619Z,8.54
2023-03-27T20:29:20.881Z,8.21
2023-03-27T20:34:25.336Z,8.23
2023-03-27T20:39:33.550Z,8.07
2023-03-27T20:44:38.020Z,8.04
2023-03-27T20:49:44.096Z,8.09
2023-03-27T20:54:49.854Z,8.29
2023-03-27T20:59:55.418Z,7.47
2023-03-27T21:04:59.644Z,7.14
2023-03-27T21:10:05.449Z,7.07
2023-03-27T21:15:11.372Z,7.31
2023-03-27T21:20:15.642Z,7.05
2023-03-27T21:25:21.972Z,7.37
2023-03-27T21:30:47.000Z,7.29
2023-03-27T21:35:52.324Z,7.38
2023-03-27T21:40:58.064Z,6.76
2023-03-27T21:46:03.962Z,6.88
2023-03-27T21:51:10.136Z,6.80
2023-03-27T21:56:15.751Z,6.58
2023-03-27T22:01:20.075Z,6.52
2023-03-27T22:06:28.937Z,6.38
2023-03-27T22:11:34.334Z,6.28
2023-03-27T22:16:38.411Z,6.20
2023-03-27T22:21:42.855Z,6.12
2023-03-27T22:26:49.028Z,6.02
2023-03-27T22:31:53.232Z,5.85
2023-03-27T22:36:57.381Z,5.92
2023-03-27T22:42:02.938Z,5.70
2023-03-27T22:47:07.109Z,5.61
2023-03-27T22:52:11.250Z,5.33
2023-03-27T22:57:16.896Z,5.39
2023-03-27T23:02:22.088Z,5.38
2023-03-27T23:07:26.533Z,5.17
2023-03-27T23:12:32.026Z,5.26
2023-03-27T23:17:36.542Z,5.20
2023-03-27T23:22:40.637Z,5.26
2023-03-27T23:27:46.481Z,5.11
2023-03-27T23:32:50.546Z,5.17
2023-03-27T23:37:54.679Z,5.08
2023-03-27T23:43:00.099Z,4.91
2023-03-27T23:48:04.155Z,4.68
2023-03-27T23:53:08.346Z,4.64
2023-03-27T23:58:13.859Z,4.41
